sensor_id;sensor_type;location;lat;lon;timestamp;P1;durP1;ratioP1;P2;durP2;ratioP2
5871;SDS011;2962;51.312;7.378;2022-07-21T00:00:53;20.63;;;15.67;;
5871;SDS011;2962;51.312;7.378;2022-07-21T00:03:18;12.90;;;11.67;;
5871;SDS011;2962;51.312;7.378;2022-07-21T00:05:43;13.53;;;12.33;;
5871;SDS011;2962;51.312;7.378;2022-07-21T00:08:08;12.73;;;11.63;;
5871;SDS011;2962;51.312;7.378;2022-07-21T00:10:34;12.67;;;10.67;;
5871;SDS011;2962;51.312;7.378;2022-07-21T00:12:59;16.53;;;11.63;;
5871;SDS011;2962;51.312;7.378;2022-07-21T00:15:26;13.50;;;11.37;;
5871;SDS011;2962;51.312;7.378;2022-07-21T00:17:53;11.07;;;10.00;;
5871;SDS011;2962;51.312;7.378;2022-07-21T00:20:19;8.70;;;8.10;;
5871;SDS011;2962;51.312;7.378;2022-07-21T00:22:45;9.00;;;8.10;;
5871;SDS011;2962;51.312;7.378;2022-07-21T00:25:11;8.70;;;8.03;;
5871;SDS011;2962;51.312;7.378;2022-07-21T00:27:37;9.03;;;8.00;;
5871;SDS011;2962;51.312;7.378;2022-07-21T00:30:05;9.53;;;8.83;;
5871;SDS011;2962;51.312;7.378;2022-07-21T00:32:31;10.10;;;9.07;;
5871;SDS011;2962;51.312;7.378;2022-07-21T00:34:57;10.17;;;9.27;;
5871;SDS011;2962;51.312;7.378;2022-07-21T00:37:22;9.93;;;9.13;;
5871;SDS011;2962;51.312;7.378;2022-07-21T00:39:49;10.53;;;9.47;;
5871;SDS011;2962;51.312;7.378;2022-07-21T00:42:25;10.87;;;9.97;;
5871;SDS011;2962;51.312;7.378;2022-07-21T00:44:55;10.40;;;9.53;;
5871;SDS011;2962;51.312;7.378;2022-07-21T00:47:22;9.97;;;9.27;;
5871;SDS011;2962;51.312;7.378;2022-07-21T00:49:51;11.50;;;10.40;;
5871;SDS011;2962;51.312;7.378;2022-07-21T00:52:17;10.70;;;9.90;;
5871;SDS011;2962;51.312;7.378;2022-07-21T00:54:43;11.93;;;10.67;;
5871;SDS011;2962;51.312;7.378;2022-07-21T00:57:09;11.90;;;10.90;;
5871;SDS011;2962;51.312;7.378;2022-07-21T00:59:34;11.87;;;10.77;;
5871;SDS011;2962;51.312;7.378;2022-07-21T01:02:00;11.77;;;10.67;;
5871;SDS011;2962;51.312;7.378;2022-07-21T01:04:25;11.60;;;10.70;;
5871;SDS011;2962;51.312;7.378;2022-07-21T01:06:52;13.03;;;11.93;;
5871;SDS011;2962;51.312;7.378;2022-07-21T01:09:19;11.90;;;10.80;;
5871;SDS011;2962;51.312;7.378;2022-07-21T01:11:45;11.53;;;10.53;;
5871;SDS011;2962;51.312;7.378;2022-07-21T01:14:11;13.20;;;11.80;;
5871;SDS011;2962;51.312;7.378;2022-07-21T01:16:37;12.80;;;11.63;;
5871;SDS011;2962;51.312;7.378;2022-07-21T01:19:02;13.40;;;12.03;;
5871;SDS011;2962;51.312;7.378;2022-07-21T01:21:34;14.37;;;12.97;;
5871;SDS011;2962;51.312;7.378;2022-07-21T01:24:01;15.93;;;14.30;;
5871;SDS011;2962;51.312;7.378;2022-07-21T01:26:29;16.70;;;13.50;;
5871;SDS011;2962;51.312;7.378;2022-07-21T01:28:55;16.10;;;14.37;;
5871;SDS011;2962;51.312;7.378;2022-07-21T01:31:22;16.43;;;14.50;;
5871;SDS011;2962;51.312;7.378;2022-07-21T01:33:48;19.30;;;14.37;;
5871;SDS011;2962;51.312;7.378;2022-07-21T01:36:14;21.50;;;15.50;;
5871;SDS011;2962;51.312;7.378;2022-07-21T01:38:40;18.93;;;16.27;;
5871;SDS011;2962;51.312;7.378;2022-07-21T01:41:24;18.93;;;16.03;;
5871;SDS011;2962;51.312;7.378;2022-07-21T01:43:59;18.10;;;16.03;;
5871;SDS011;2962;51.312;7.378;2022-07-21T01:46:27;18.90;;;16.97;;
5871;SDS011;2962;51.312;7.378;2022-07-21T01:48:53;23.47;;;18.10;;
5871;SDS011;2962;51.312;7.378;2022-07-21T01:51:18;22.00;;;17.43;;
5871;SDS011;2962;51.312;7.378;2022-07-21T01:53:44;33.03;;;18.30;;
5871;SDS011;2962;51.312;7.378;2022-07-21T01:56:09;18.23;;;16.33;;
5871;SDS011;2962;51.312;7.378;2022-07-21T01:58:35;17.63;;;14.00;;
5871;SDS011;2962;51.312;7.378;2022-07-21T02:01:00;15.90;;;12.23;;
5871;SDS011;2962;51.312;7.378;2022-07-21T02:03:25;13.77;;;12.50;;
5871;SDS011;2962;51.312;7.378;2022-07-21T02:05:50;12.63;;;11.43;;
5871;SDS011;2962;51.312;7.378;2022-07-21T02:08:16;11.57;;;10.40;;
5871;SDS011;2962;51.312;7.378;2022-07-21T02:10:41;13.00;;;11.50;;
5871;SDS011;2962;51.312;7.378;2022-07-21T02:13:07;13.50;;;11.80;;
5871;SDS011;2962;51.312;7.378;2022-07-21T02:15:32;12.17;;;11.17;;
5871;SDS011;2962;51.312;7.378;2022-07-21T02:17:58;23.17;;;13.00;;
5871;SDS011;2962;51.312;7.378;2022-07-21T02:20:24;14.27;;;12.87;;
5871;SDS011;2962;51.312;7.378;2022-07-21T02:22:50;13.00;;;11.60;;
5871;SDS011;2962;51.312;7.378;2022-07-21T02:25:15;12.77;;;11.57;;
5871;SDS011;2962;51.312;7.378;2022-07-21T02:27:41;12.50;;;11.00;;
5871;SDS011;2962;51.312;7.378;2022-07-21T02:30:08;18.00;;;11.57;;
5871;SDS011;2962;51.312;7.378;2022-07-21T02:32:34;14.63;;;11.13;;
5871;SDS011;2962;51.312;7.378;2022-07-21T02:34:59;15.40;;;12.60;;
5871;SDS011;2962;51.312;7.378;2022-07-21T02:37:24;21.17;;;13.70;;
5871;SDS011;2962;51.312;7.378;2022-07-21T02:39:49;14.33;;;12.93;;
5871;SDS011;2962;51.312;7.378;2022-07-21T02:42:15;14.90;;;12.00;;
5871;SDS011;2962;51.312;7.378;2022-07-21T02:44:40;13.37;;;12.10;;
5871;SDS011;2962;51.312;7.378;2022-07-21T02:47:05;12.53;;;11.33;;
5871;SDS011;2962;51.312;7.378;2022-07-21T02:49:31;14.57;;;13.07;;
5871;SDS011;2962;51.312;7.378;2022-07-21T02:51:56;85.63;;;15.57;;
5871;SDS011;2962;51.312;7.378;2022-07-21T02:54:21;149.80;;;18.90;;
5871;SDS011;2962;51.312;7.378;2022-07-21T02:56:47;358.23;;;24.93;;
5871;SDS011;2962;51.312;7.378;2022-07-21T02:59:12;162.57;;;19.83;;
5871;SDS011;2962;51.312;7.378;2022-07-21T03:01:37;40.50;;;14.83;;
5871;SDS011;2962;51.312;7.378;2022-07-21T03:04:02;31.77;;;15.47;;
5871;SDS011;2962;51.312;7.378;2022-07-21T03:06:28;277.60;;;23.30;;
5871;SDS011;2962;51.312;7.378;2022-07-21T03:08:53;21.77;;;14.40;;
5871;SDS011;2962;51.312;7.378;2022-07-21T03:11:18;336.17;;;23.33;;
5871;SDS011;2962;51.312;7.378;2022-07-21T03:13:44;441.30;;;32.17;;
5871;SDS011;2962;51.312;7.378;2022-07-21T03:16:09;58.80;;;15.27;;
5871;SDS011;2962;51.312;7.378;2022-07-21T03:18:34;586.77;;;33.40;;
5871;SDS011;2962;51.312;7.378;2022-07-21T03:21:00;622.07;;;33.53;;
5871;SDS011;2962;51.312;7.378;2022-07-21T03:23:25;38.73;;;13.97;;
5871;SDS011;2962;51.312;7.378;2022-07-21T03:25:51;13.53;;;12.13;;
5871;SDS011;2962;51.312;7.378;2022-07-21T03:28:16;14.43;;;12.37;;
5871;SDS011;2962;51.312;7.378;2022-07-21T03:30:42;14.80;;;12.40;;
5871;SDS011;2962;51.312;7.378;2022-07-21T03:33:07;13.60;;;12.37;;
5871;SDS011;2962;51.312;7.378;2022-07-21T03:35:32;77.43;;;15.07;;
5871;SDS011;2962;51.312;7.378;2022-07-21T03:37:58;235.90;;;21.00;;
5871;SDS011;2962;51.312;7.378;2022-07-21T03:40:26;63.53;;;15.97;;
5871;SDS011;2962;51.312;7.378;2022-07-21T03:42:54;15.13;;;13.70;;
5871;SDS011;2962;51.312;7.378;2022-07-21T03:45:26;16.80;;;15.10;;
5871;SDS011;2962;51.312;7.378;2022-07-21T03:47:54;16.67;;;15.03;;
5871;SDS011;2962;51.312;7.378;2022-07-21T03:50:20;18.23;;;15.90;;
5871;SDS011;2962;51.312;7.378;2022-07-21T03:52:45;30.03;;;16.53;;
5871;SDS011;2962;51.312;7.378;2022-07-21T03:55:11;27.33;;;17.80;;
5871;SDS011;2962;51.312;7.378;2022-07-21T03:57:44;22.07;;;16.33;;
5871;SDS011;2962;51.312;7.378;2022-07-21T04:00:14;21.40;;;16.67;;
5871;SDS011;2962;51.312;7.378;2022-07-21T04:02:43;21.83;;;16.83;;
5871;SDS011;2962;51.312;7.378;2022-07-21T04:05:10;119.93;;;19.80;;
5871;SDS011;2962;51.312;7.378;2022-07-21T04:07:40;252.17;;;21.13;;
5871;SDS011;2962;51.312;7.378;2022-07-21T04:10:08;31.70;;;17.13;;
5871;SDS011;2962;51.312;7.378;2022-07-21T04:12:35;28.80;;;18.10;;
5871;SDS011;2962;51.312;7.378;2022-07-21T04:15:01;20.90;;;17.50;;
5871;SDS011;2962;51.312;7.378;2022-07-21T04:17:27;25.27;;;18.20;;
5871;SDS011;2962;51.312;7.378;2022-07-21T04:19:52;76.17;;;19.77;;
5871;SDS011;2962;51.312;7.378;2022-07-21T04:22:17;84.17;;;20.10;;
5871;SDS011;2962;51.312;7.378;2022-07-21T04:24:43;73.93;;;21.40;;
5871;SDS011;2962;51.312;7.378;2022-07-21T04:27:08;64.40;;;21.60;;
5871;SDS011;2962;51.312;7.378;2022-07-21T04:29:33;34.47;;;20.77;;
5871;SDS011;2962;51.312;7.378;2022-07-21T04:31:59;47.83;;;21.83;;
5871;SDS011;2962;51.312;7.378;2022-07-21T04:34:24;28.93;;;23.07;;
5871;SDS011;2962;51.312;7.378;2022-07-21T04:36:50;145.83;;;25.20;;
5871;SDS011;2962;51.312;7.378;2022-07-21T04:39:15;56.27;;;24.13;;
5871;SDS011;2962;51.312;7.378;2022-07-21T04:41:40;220.83;;;31.37;;
5871;SDS011;2962;51.312;7.378;2022-07-21T04:44:06;35.43;;;26.13;;
5871;SDS011;2962;51.312;7.378;2022-07-21T04:46:31;37.53;;;26.03;;
5871;SDS011;2962;51.312;7.378;2022-07-21T04:48:56;52.77;;;28.00;;
5871;SDS011;2962;51.312;7.378;2022-07-21T04:51:22;42.03;;;28.37;;
5871;SDS011;2962;51.312;7.378;2022-07-21T04:53:47;49.03;;;27.53;;
5871;SDS011;2962;51.312;7.378;2022-07-21T04:56:12;37.17;;;27.90;;
5871;SDS011;2962;51.312;7.378;2022-07-21T04:58:38;38.40;;;28.53;;
5871;SDS011;2962;51.312;7.378;2022-07-21T05:01:03;35.70;;;28.87;;
5871;SDS011;2962;51.312;7.378;2022-07-21T05:03:28;35.23;;;27.00;;
5871;SDS011;2962;51.312;7.378;2022-07-21T05:05:53;40.73;;;29.83;;
5871;SDS011;2962;51.312;7.378;2022-07-21T05:08:19;38.00;;;29.50;;
5871;SDS011;2962;51.312;7.378;2022-07-21T05:10:44;36.07;;;29.27;;
5871;SDS011;2962;51.312;7.378;2022-07-21T05:13:09;37.93;;;28.03;;
5871;SDS011;2962;51.312;7.378;2022-07-21T05:15:34;33.77;;;27.13;;
5871;SDS011;2962;51.312;7.378;2022-07-21T05:18:00;36.97;;;27.93;;
5871;SDS011;2962;51.312;7.378;2022-07-21T05:20:25;33.87;;;27.03;;
5871;SDS011;2962;51.312;7.378;2022-07-21T05:22:50;36.00;;;28.40;;
5871;SDS011;2962;51.312;7.378;2022-07-21T05:25:15;33.70;;;26.73;;
5871;SDS011;2962;51.312;7.378;2022-07-21T05:27:41;34.10;;;26.63;;
5871;SDS011;2962;51.312;7.378;2022-07-21T05:30:06;31.60;;;22.80;;
5871;SDS011;2962;51.312;7.378;2022-07-21T05:32:32;29.53;;;25.20;;
5871;SDS011;2962;51.312;7.378;2022-07-21T05:34:58;30.93;;;24.03;;
5871;SDS011;2962;51.312;7.378;2022-07-21T05:37:23;31.57;;;26.17;;
5871;SDS011;2962;51.312;7.378;2022-07-21T05:39:48;31.13;;;25.87;;
5871;SDS011;2962;51.312;7.378;2022-07-21T05:42:14;32.67;;;27.13;;
5871;SDS011;2962;51.312;7.378;2022-07-21T05:44:39;26.70;;;23.77;;
5871;SDS011;2962;51.312;7.378;2022-07-21T05:47:04;29.53;;;25.40;;
5871;SDS011;2962;51.312;7.378;2022-07-21T05:49:30;31.40;;;26.60;;
5871;SDS011;2962;51.312;7.378;2022-07-21T05:51:55;33.93;;;27.50;;
5871;SDS011;2962;51.312;7.378;2022-07-21T05:54:20;31.20;;;26.10;;
5871;SDS011;2962;51.312;7.378;2022-07-21T05:56:45;30.83;;;26.90;;
5871;SDS011;2962;51.312;7.378;2022-07-21T05:59:11;29.53;;;26.30;;
5871;SDS011;2962;51.312;7.378;2022-07-21T06:01:36;28.33;;;23.17;;
5871;SDS011;2962;51.312;7.378;2022-07-21T06:04:01;27.17;;;24.10;;
5871;SDS011;2962;51.312;7.378;2022-07-21T06:06:27;25.33;;;22.63;;
5871;SDS011;2962;51.312;7.378;2022-07-21T06:08:52;26.83;;;24.00;;
5871;SDS011;2962;51.312;7.378;2022-07-21T06:11:19;24.83;;;20.93;;
5871;SDS011;2962;51.312;7.378;2022-07-21T06:13:46;24.37;;;21.87;;
5871;SDS011;2962;51.312;7.378;2022-07-21T06:16:12;26.97;;;22.07;;
5871;SDS011;2962;51.312;7.378;2022-07-21T06:18:37;27.00;;;21.77;;
5871;SDS011;2962;51.312;7.378;2022-07-21T06:21:03;24.07;;;21.60;;
5871;SDS011;2962;51.312;7.378;2022-07-21T06:23:29;22.60;;;20.40;;
5871;SDS011;2962;51.312;7.378;2022-07-21T06:25:54;24.30;;;19.77;;
5871;SDS011;2962;51.312;7.378;2022-07-21T06:28:20;20.40;;;18.40;;
5871;SDS011;2962;51.312;7.378;2022-07-21T06:30:46;22.87;;;18.47;;
5871;SDS011;2962;51.312;7.378;2022-07-21T06:33:12;19.50;;;17.50;;
5871;SDS011;2962;51.312;7.378;2022-07-21T06:35:37;20.53;;;18.20;;
5871;SDS011;2962;51.312;7.378;2022-07-21T06:38:03;22.50;;;20.17;;
5871;SDS011;2962;51.312;7.378;2022-07-21T06:40:28;23.90;;;19.90;;
5871;SDS011;2962;51.312;7.378;2022-07-21T06:42:54;21.30;;;19.20;;
5871;SDS011;2962;51.312;7.378;2022-07-21T06:45:20;20.30;;;18.43;;
5871;SDS011;2962;51.312;7.378;2022-07-21T06:47:46;19.97;;;17.97;;
5871;SDS011;2962;51.312;7.378;2022-07-21T06:50:11;20.83;;;18.70;;
5871;SDS011;2962;51.312;7.378;2022-07-21T06:52:37;19.90;;;17.97;;
5871;SDS011;2962;51.312;7.378;2022-07-21T06:55:04;19.63;;;17.30;;
5871;SDS011;2962;51.312;7.378;2022-07-21T06:57:31;19.30;;;17.33;;
5871;SDS011;2962;51.312;7.378;2022-07-21T06:59:58;17.13;;;15.43;;
5871;SDS011;2962;51.312;7.378;2022-07-21T07:02:24;16.70;;;14.50;;
5871;SDS011;2962;51.312;7.378;2022-07-21T07:04:49;17.57;;;15.77;;
5871;SDS011;2962;51.312;7.378;2022-07-21T07:07:14;15.50;;;14.10;;
5871;SDS011;2962;51.312;7.378;2022-07-21T07:09:39;16.13;;;14.73;;
5871;SDS011;2962;51.312;7.378;2022-07-21T07:12:07;14.47;;;13.20;;
5871;SDS011;2962;51.312;7.378;2022-07-21T07:14:33;16.97;;;15.17;;
5871;SDS011;2962;51.312;7.378;2022-07-21T07:17:00;15.63;;;14.20;;
5871;SDS011;2962;51.312;7.378;2022-07-21T07:19:27;15.90;;;14.27;;
5871;SDS011;2962;51.312;7.378;2022-07-21T07:21:52;16.60;;;14.90;;
5871;SDS011;2962;51.312;7.378;2022-07-21T07:24:18;17.23;;;13.40;;
5871;SDS011;2962;51.312;7.378;2022-07-21T07:26:44;14.10;;;12.83;;
5871;SDS011;2962;51.312;7.378;2022-07-21T07:29:09;18.20;;;13.50;;
5871;SDS011;2962;51.312;7.378;2022-07-21T07:31:35;13.77;;;12.43;;
5871;SDS011;2962;51.312;7.378;2022-07-21T07:34:01;14.07;;;12.93;;
5871;SDS011;2962;51.312;7.378;2022-07-21T07:36:26;15.90;;;14.60;;
5871;SDS011;2962;51.312;7.378;2022-07-21T07:38:54;16.37;;;14.90;;
5871;SDS011;2962;51.312;7.378;2022-07-21T07:41:21;15.67;;;14.37;;
5871;SDS011;2962;51.312;7.378;2022-07-21T07:43:48;14.93;;;13.80;;
5871;SDS011;2962;51.312;7.378;2022-07-21T07:46:14;16.20;;;14.70;;
5871;SDS011;2962;51.312;7.378;2022-07-21T07:48:40;16.80;;;14.63;;
5871;SDS011;2962;51.312;7.378;2022-07-21T07:51:07;16.50;;;14.97;;
5871;SDS011;2962;51.312;7.378;2022-07-21T07:53:32;12.87;;;11.83;;
5871;SDS011;2962;51.312;7.378;2022-07-21T07:55:58;11.97;;;11.10;;
5871;SDS011;2962;51.312;7.378;2022-07-21T07:58:23;11.50;;;10.33;;
5871;SDS011;2962;51.312;7.378;2022-07-21T08:00:49;11.57;;;10.50;;
5871;SDS011;2962;51.312;7.378;2022-07-21T08:03:14;10.00;;;9.10;;
5871;SDS011;2962;51.312;7.378;2022-07-21T08:05:39;9.57;;;8.87;;
5871;SDS011;2962;51.312;7.378;2022-07-21T08:08:05;11.77;;;8.67;;
5871;SDS011;2962;51.312;7.378;2022-07-21T08:10:30;10.63;;;9.73;;
5871;SDS011;2962;51.312;7.378;2022-07-21T08:12:55;8.97;;;8.47;;
5871;SDS011;2962;51.312;7.378;2022-07-21T08:15:21;10.07;;;9.40;;
5871;SDS011;2962;51.312;7.378;2022-07-21T08:17:46;10.60;;;8.87;;
5871;SDS011;2962;51.312;7.378;2022-07-21T08:20:11;9.67;;;9.00;;
5871;SDS011;2962;51.312;7.378;2022-07-21T08:22:37;10.17;;;9.17;;
5871;SDS011;2962;51.312;7.378;2022-07-21T08:25:04;9.70;;;8.70;;
5871;SDS011;2962;51.312;7.378;2022-07-21T08:27:30;9.90;;;9.10;;
5871;SDS011;2962;51.312;7.378;2022-07-21T08:29:55;8.43;;;6.10;;
5871;SDS011;2962;51.312;7.378;2022-07-21T08:32:21;6.77;;;6.30;;
5871;SDS011;2962;51.312;7.378;2022-07-21T08:34:46;5.50;;;5.10;;
5871;SDS011;2962;51.312;7.378;2022-07-21T08:37:11;6.17;;;5.67;;
5871;SDS011;2962;51.312;7.378;2022-07-21T08:39:37;5.83;;;5.33;;
5871;SDS011;2962;51.312;7.378;2022-07-21T08:42:02;5.63;;;4.63;;
5871;SDS011;2962;51.312;7.378;2022-07-21T08:44:31;4.77;;;4.33;;
5871;SDS011;2962;51.312;7.378;2022-07-21T08:46:57;5.20;;;4.70;;
5871;SDS011;2962;51.312;7.378;2022-07-21T08:49:23;6.63;;;4.70;;
5871;SDS011;2962;51.312;7.378;2022-07-21T08:51:49;8.63;;;4.97;;
5871;SDS011;2962;51.312;7.378;2022-07-21T08:54:16;4.90;;;4.50;;
5871;SDS011;2962;51.312;7.378;2022-07-21T08:56:42;4.67;;;4.27;;
5871;SDS011;2962;51.312;7.378;2022-07-21T08:59:08;5.70;;;5.37;;
5871;SDS011;2962;51.312;7.378;2022-07-21T09:01:33;5.80;;;5.30;;
5871;SDS011;2962;51.312;7.378;2022-07-21T09:06:54;4.97;;;4.57;;
5871;SDS011;2962;51.312;7.378;2022-07-21T09:09:21;4.63;;;4.33;;
5871;SDS011;2962;51.312;7.378;2022-07-21T09:11:47;5.53;;;3.90;;
5871;SDS011;2962;51.312;7.378;2022-07-21T09:14:14;4.23;;;4.03;;
5871;SDS011;2962;51.312;7.378;2022-07-21T09:16:44;4.37;;;4.03;;
5871;SDS011;2962;51.312;7.378;2022-07-21T09:19:15;3.80;;;3.53;;
5871;SDS011;2962;51.312;7.378;2022-07-21T09:21:52;4.77;;;4.40;;
5871;SDS011;2962;51.312;7.378;2022-07-21T09:32:21;4.10;;;3.87;;
5871;SDS011;2962;51.312;7.378;2022-07-21T09:37:30;3.70;;;3.33;;
5871;SDS011;2962;51.312;7.378;2022-07-21T09:39:57;4.80;;;3.70;;
5871;SDS011;2962;51.312;7.378;2022-07-21T09:42:32;4.63;;;4.23;;
5871;SDS011;2962;51.312;7.378;2022-07-21T09:45:04;3.73;;;3.63;;
5871;SDS011;2962;51.312;7.378;2022-07-21T09:47:32;4.17;;;4.00;;
5871;SDS011;2962;51.312;7.378;2022-07-21T09:49:58;6.00;;;5.70;;
5871;SDS011;2962;51.312;7.378;2022-07-21T09:52:32;5.57;;;5.30;;
5871;SDS011;2962;51.312;7.378;2022-07-21T09:55:01;5.47;;;5.17;;
5871;SDS011;2962;51.312;7.378;2022-07-21T09:57:28;5.10;;;5.00;;
5871;SDS011;2962;51.312;7.378;2022-07-21T09:59:54;6.00;;;5.70;;
5871;SDS011;2962;51.312;7.378;2022-07-21T10:02:22;6.40;;;6.00;;
5871;SDS011;2962;51.312;7.378;2022-07-21T10:04:57;7.10;;;6.73;;
5871;SDS011;2962;51.312;7.378;2022-07-21T10:07:24;7.77;;;7.27;;
5871;SDS011;2962;51.312;7.378;2022-07-21T10:09:51;10.93;;;9.90;;
5871;SDS011;2962;51.312;7.378;2022-07-21T10:12:17;10.53;;;9.80;;
5871;SDS011;2962;51.312;7.378;2022-07-21T10:14:43;12.10;;;11.10;;
5871;SDS011;2962;51.312;7.378;2022-07-21T10:17:09;10.63;;;9.47;;
5871;SDS011;2962;51.312;7.378;2022-07-21T10:19:36;11.10;;;10.27;;
5871;SDS011;2962;51.312;7.378;2022-07-21T10:25:17;9.60;;;9.00;;
5871;SDS011;2962;51.312;7.378;2022-07-21T10:28:11;9.90;;;8.93;;
5871;SDS011;2962;51.312;7.378;2022-07-21T10:30:47;9.73;;;9.13;;
5871;SDS011;2962;51.312;7.378;2022-07-21T10:33:16;9.53;;;8.73;;
5871;SDS011;2962;51.312;7.378;2022-07-21T10:35:46;10.50;;;9.50;;
5871;SDS011;2962;51.312;7.378;2022-07-21T10:38:24;8.87;;;8.17;;
5871;SDS011;2962;51.312;7.378;2022-07-21T10:40:57;10.03;;;9.23;;
5871;SDS011;2962;51.312;7.378;2022-07-21T10:45:49;9.17;;;8.47;;
5871;SDS011;2962;51.312;7.378;2022-07-21T10:51:13;10.23;;;9.43;;
5871;SDS011;2962;51.312;7.378;2022-07-21T10:53:40;11.33;;;9.17;;
5871;SDS011;2962;51.312;7.378;2022-07-21T10:56:06;9.73;;;9.03;;
5871;SDS011;2962;51.312;7.378;2022-07-21T10:58:33;9.07;;;8.40;;
5871;SDS011;2962;51.312;7.378;2022-07-21T11:03:34;9.07;;;8.37;;
5871;SDS011;2962;51.312;7.378;2022-07-21T11:08:37;8.53;;;7.70;;
5871;SDS011;2962;51.312;7.378;2022-07-21T11:11:10;16.70;;;8.50;;
5871;SDS011;2962;51.312;7.378;2022-07-21T11:14:00;8.90;;;8.30;;
5871;SDS011;2962;51.312;7.378;2022-07-21T11:21:56;8.97;;;8.10;;
5871;SDS011;2962;51.312;7.378;2022-07-21T11:24:24;8.90;;;8.07;;
5871;SDS011;2962;51.312;7.378;2022-07-21T11:26:56;9.20;;;8.50;;
5871;SDS011;2962;51.312;7.378;2022-07-21T11:29:23;8.77;;;8.17;;
5871;SDS011;2962;51.312;7.378;2022-07-21T11:31:48;15.53;;;9.97;;
5871;SDS011;2962;51.312;7.378;2022-07-21T11:34:14;10.07;;;9.37;;
5871;SDS011;2962;51.312;7.378;2022-07-21T11:36:40;11.33;;;9.97;;
5871;SDS011;2962;51.312;7.378;2022-07-21T11:39:11;11.43;;;10.27;;
5871;SDS011;2962;51.312;7.378;2022-07-21T11:41:38;10.53;;;9.50;;
5871;SDS011;2962;51.312;7.378;2022-07-21T11:44:06;12.20;;;10.83;;
5871;SDS011;2962;51.312;7.378;2022-07-21T11:49:31;12.93;;;11.73;;
5871;SDS011;2962;51.312;7.378;2022-07-21T11:56:59;15.00;;;13.40;;
5871;SDS011;2962;51.312;7.378;2022-07-21T11:59:26;14.10;;;12.90;;
5871;SDS011;2962;51.312;7.378;2022-07-21T12:01:52;14.73;;;13.23;;
5871;SDS011;2962;51.312;7.378;2022-07-21T12:04:33;14.23;;;13.00;;
5871;SDS011;2962;51.312;7.378;2022-07-21T12:07:02;15.70;;;13.93;;
5871;SDS011;2962;51.312;7.378;2022-07-21T12:09:34;19.20;;;16.23;;
5871;SDS011;2962;51.312;7.378;2022-07-21T12:12:01;16.53;;;14.10;;
5871;SDS011;2962;51.312;7.378;2022-07-21T12:14:43;16.93;;;15.20;;
5871;SDS011;2962;51.312;7.378;2022-07-21T12:17:10;18.57;;;16.57;;
5871;SDS011;2962;51.312;7.378;2022-07-21T12:19:36;19.67;;;17.50;;
5871;SDS011;2962;51.312;7.378;2022-07-21T12:22:02;19.63;;;16.60;;
5871;SDS011;2962;51.312;7.378;2022-07-21T12:27:13;22.13;;;19.80;;
5871;SDS011;2962;51.312;7.378;2022-07-21T12:29:38;23.30;;;19.70;;
5871;SDS011;2962;51.312;7.378;2022-07-21T12:32:03;25.67;;;20.33;;
5871;SDS011;2962;51.312;7.378;2022-07-21T12:34:28;26.60;;;20.60;;
5871;SDS011;2962;51.312;7.378;2022-07-21T12:36:54;23.83;;;19.80;;
5871;SDS011;2962;51.312;7.378;2022-07-21T12:39:21;21.63;;;19.33;;
5871;SDS011;2962;51.312;7.378;2022-07-21T12:42:31;23.07;;;19.67;;
5871;SDS011;2962;51.312;7.378;2022-07-21T12:45:00;26.83;;;19.50;;
5871;SDS011;2962;51.312;7.378;2022-07-21T12:47:37;16.80;;;13.70;;
5871;SDS011;2962;51.312;7.378;2022-07-21T12:50:03;15.63;;;14.10;;
5871;SDS011;2962;51.312;7.378;2022-07-21T12:52:31;14.63;;;13.23;;
5871;SDS011;2962;51.312;7.378;2022-07-21T12:54:57;12.90;;;11.80;;
5871;SDS011;2962;51.312;7.378;2022-07-21T12:57:27;14.20;;;12.97;;
5871;SDS011;2962;51.312;7.378;2022-07-21T12:59:54;14.70;;;13.50;;
5871;SDS011;2962;51.312;7.378;2022-07-21T13:02:20;13.83;;;12.53;;
5871;SDS011;2962;51.312;7.378;2022-07-21T13:04:45;13.30;;;12.10;;
5871;SDS011;2962;51.312;7.378;2022-07-21T13:07:11;13.57;;;12.50;;
5871;SDS011;2962;51.312;7.378;2022-07-21T13:09:36;13.10;;;11.80;;
5871;SDS011;2962;51.312;7.378;2022-07-21T13:12:01;13.50;;;12.27;;
5871;SDS011;2962;51.312;7.378;2022-07-21T13:14:27;12.60;;;11.47;;
5871;SDS011;2962;51.312;7.378;2022-07-21T13:16:52;10.33;;;9.47;;
5871;SDS011;2962;51.312;7.378;2022-07-21T13:19:20;11.20;;;10.10;;
5871;SDS011;2962;51.312;7.378;2022-07-21T13:21:45;10.03;;;9.40;;
5871;SDS011;2962;51.312;7.378;2022-07-21T13:24:10;9.20;;;8.60;;
5871;SDS011;2962;51.312;7.378;2022-07-21T13:26:36;8.90;;;8.40;;
5871;SDS011;2962;51.312;7.378;2022-07-21T13:29:01;7.50;;;7.10;;
5871;SDS011;2962;51.312;7.378;2022-07-21T13:31:27;7.80;;;7.20;;
5871;SDS011;2962;51.312;7.378;2022-07-21T13:33:52;7.70;;;7.40;;
5871;SDS011;2962;51.312;7.378;2022-07-21T13:36:18;7.60;;;7.20;;
5871;SDS011;2962;51.312;7.378;2022-07-21T13:38:43;7.63;;;7.23;;
5871;SDS011;2962;51.312;7.378;2022-07-21T13:41:08;8.83;;;8.33;;
5871;SDS011;2962;51.312;7.378;2022-07-21T13:43:35;8.47;;;7.67;;
5871;SDS011;2962;51.312;7.378;2022-07-21T13:46:01;8.60;;;7.90;;
5871;SDS011;2962;51.312;7.378;2022-07-21T13:48:26;8.70;;;8.00;;
5871;SDS011;2962;51.312;7.378;2022-07-21T13:50:51;7.60;;;7.20;;
5871;SDS011;2962;51.312;7.378;2022-07-21T13:53:17;7.10;;;6.60;;
5871;SDS011;2962;51.312;7.378;2022-07-21T13:55:42;19.63;;;7.07;;
5871;SDS011;2962;51.312;7.378;2022-07-21T13:58:07;7.63;;;7.23;;
5871;SDS011;2962;51.312;7.378;2022-07-21T14:00:33;7.33;;;6.50;;
5871;SDS011;2962;51.312;7.378;2022-07-21T14:02:59;5.37;;;5.07;;
5871;SDS011;2962;51.312;7.378;2022-07-21T14:05:24;4.40;;;4.30;;
5871;SDS011;2962;51.312;7.378;2022-07-21T14:07:49;3.93;;;3.80;;
5871;SDS011;2962;51.312;7.378;2022-07-21T14:10:15;4.63;;;4.50;;
5871;SDS011;2962;51.312;7.378;2022-07-21T14:12:41;4.10;;;4.10;;
5871;SDS011;2962;51.312;7.378;2022-07-21T14:15:06;5.30;;;5.13;;
5871;SDS011;2962;51.312;7.378;2022-07-21T14:17:32;4.60;;;4.40;;
5871;SDS011;2962;51.312;7.378;2022-07-21T14:19:57;8.57;;;7.97;;
5871;SDS011;2962;51.312;7.378;2022-07-21T14:22:22;11.07;;;10.17;;
5871;SDS011;2962;51.312;7.378;2022-07-21T14:24:48;12.47;;;11.37;;
5871;SDS011;2962;51.312;7.378;2022-07-21T14:27:32;16.90;;;13.63;;
5871;SDS011;2962;51.312;7.378;2022-07-21T14:29:58;17.60;;;15.13;;
5871;SDS011;2962;51.312;7.378;2022-07-21T14:32:23;18.30;;;15.00;;
5871;SDS011;2962;51.312;7.378;2022-07-21T14:34:49;18.50;;;16.50;;
5871;SDS011;2962;51.312;7.378;2022-07-21T14:37:15;21.10;;;16.17;;
5871;SDS011;2962;51.312;7.378;2022-07-21T14:39:41;22.97;;;15.90;;
5871;SDS011;2962;51.312;7.378;2022-07-21T14:42:06;21.90;;;16.07;;
5871;SDS011;2962;51.312;7.378;2022-07-21T14:44:32;16.23;;;14.20;;
5871;SDS011;2962;51.312;7.378;2022-07-21T14:46:57;12.43;;;11.33;;
5871;SDS011;2962;51.312;7.378;2022-07-21T14:49:22;9.93;;;9.03;;
5871;SDS011;2962;51.312;7.378;2022-07-21T14:51:47;7.13;;;6.63;;
5871;SDS011;2962;51.312;7.378;2022-07-21T14:54:13;7.50;;;7.00;;
5871;SDS011;2962;51.312;7.378;2022-07-21T14:56:38;5.83;;;5.53;;
5871;SDS011;2962;51.312;7.378;2022-07-21T14:59:03;5.80;;;5.40;;
5871;SDS011;2962;51.312;7.378;2022-07-21T15:01:28;7.20;;;6.70;;
5871;SDS011;2962;51.312;7.378;2022-07-21T15:03:54;6.53;;;6.20;;
5871;SDS011;2962;51.312;7.378;2022-07-21T15:06:19;7.70;;;7.20;;
5871;SDS011;2962;51.312;7.378;2022-07-21T15:08:45;8.13;;;7.63;;
5871;SDS011;2962;51.312;7.378;2022-07-21T15:11:10;9.03;;;8.33;;
5871;SDS011;2962;51.312;7.378;2022-07-21T15:13:36;11.60;;;10.60;;
5871;SDS011;2962;51.312;7.378;2022-07-21T15:16:01;11.03;;;9.93;;
5871;SDS011;2962;51.312;7.378;2022-07-21T15:18:26;13.27;;;12.03;;
5871;SDS011;2962;51.312;7.378;2022-07-21T15:20:52;13.13;;;11.70;;
5871;SDS011;2962;51.312;7.378;2022-07-21T15:23:17;15.80;;;12.33;;
5871;SDS011;2962;51.312;7.378;2022-07-21T15:25:42;15.37;;;13.87;;
5871;SDS011;2962;51.312;7.378;2022-07-21T15:28:08;15.80;;;14.27;;
5871;SDS011;2962;51.312;7.378;2022-07-21T15:30:34;12.57;;;11.37;;
5871;SDS011;2962;51.312;7.378;2022-07-21T15:33:00;7.13;;;6.50;;
5871;SDS011;2962;51.312;7.378;2022-07-21T15:35:26;9.43;;;6.47;;